Flight Track Log - Related Links

Times and Time Zones

All times are in EDT time to prevent confusion due to time zone crossing. See the SWA407 flight status page for this flight to view local times or setup timezone preferences in your user account.

Time Position Orientation Groundspeed Altitude Reporting Facility
EDT Latitude Longitude Course Direction KTS MPH feet Rate Location/Type
Tue 07:10:09 PM 42.9500 -78.7167 48° Northeast 139 160 2,100  Level Buffalo TRACON
Tue 07:10:57 PM 42.9833 -78.6667 48° Northeast 208 239 4,500 3,444 Climbing Buffalo TRACON
Tue 07:11:57 PM 43.0269 -78.6067 45° Northeast 270 311 8,300 2,800 Climbing Cleveland Center
Tue 07:12:57 PM 42.9903 -78.5397 127° Southeast 320 368 10,100 1,850 Climbing Cleveland Center
Tue 07:13:57 PM 42.9133 -78.5478 184° South 260 299 12,000 2,500 Climbing Cleveland Center
Tue 07:14:57 PM 42.8292 -78.5108 162° South 281 323 15,100 2,700 Climbing Cleveland Center
Tue 07:15:57 PM 42.7403 -78.4347 148° Southeast 336 387 17,400 2,700 Climbing Cleveland Center
Tue 07:16:57 PM 42.6453 -78.3589 150° Southeast 370 426 20,500 2,800 Climbing Cleveland Center
Tue 07:17:57 PM 42.5497 -78.2778 148° Southeast 398 458 23,000 1,250 Climbing Cleveland Center
Tue 07:18:57 PM 42.4458 -78.1942 149° Southeast 415 478 23,000  Level Cleveland Center
Tue 07:19:57 PM 42.3356 -78.1056 149° Southeast 446 513 23,000  Level Cleveland Center
Tue 07:20:57 PM 42.2294 -78.0172 148° Southeast 452 520 23,000  Level Cleveland Center
Tue 07:21:57 PM 42.1064 -77.9214 150° Southeast 459 528 23,000  Level Cleveland Center
Tue 07:22:57 PM 41.9981 -77.8339 149° Southeast 459 528 23,000  Level Cleveland Center
Tue 07:24:17 PM 41.8614 -77.7250 149° Southeast 465 535 23,000  Level New York Center
Tue 07:25:18 PM 41.7542 -77.6361 148° Southeast 465 535 23,000  Level New York Center
Tue 07:26:16 PM 41.6306 -77.5400 150° Southeast 465 535 23,000  Level New York Center
Tue 07:27:17 PM 41.5208 -77.4542 150° Southeast 465 535 23,000 -344 Level New York Center
Tue 07:28:18 PM 41.4039 -77.3817 155° Southeast 465 535 22,300 -843 Descending New York Center
Tue 07:29:18 PM 41.2864 -77.3233 160° South 460 529 21,300 -1,008 Descending New York Center
Tue 07:30:17 PM 41.1697 -77.2872 167° South 448 516 20,300 -1,026 Descending New York Center
Tue 07:31:15 PM 41.0528 -77.2539 168° South 448 516 19,300 -1,008 Descending New York Center
Tue 07:32:16 PM 40.9381 -77.2156 166° South 443 510 18,300 -984 Descending New York Center
Tue 07:33:17 PM 40.8336 -77.1808 166° South 438 504 17,300 -1,008 Descending New York Center
Tue 07:34:15 PM 40.7231 -77.1458 167° South 428 493 16,300 -1,000 Descending New York Center
Tue 07:35:17 PM 40.6122 -77.1111 167° South 415 478 15,300 -650 Descending New York Center
Tue 07:36:15 PM 40.4933 -77.0728 166° South 410 472 15,000 -303 Descending New York Center
Tue 07:37:16 PM 40.3972 -77.0422 166° South 410 472 14,700 -645 Descending New York Center
Tue 07:38:16 PM 40.2761 -77.0039 166° South 410 472 13,700 -1,026 Descending New York Center
Tue 07:39:48 PM 40.1167 -76.9500 166° South 399 459 12,100 -1,019 Descending Potomac TRACON
Tue 07:41:00 PM 40.0008 -76.9225 166° South  Level FlightAware Approximate
Tue 07:41:48 PM 39.9000 -76.8833 166° South 380 437 10,100  Level Potomac TRACON
Tue 07:42:48 PM 39.8167 -76.8667 171° South 335 386 10,000 -500 Descending Potomac TRACON
Tue 07:43:48 PM 39.7333 -76.8333 163° South 294 338 9,100 -950 Descending Potomac TRACON
Tue 07:44:48 PM 39.6500 -76.8167 171° South 288 331 8,100 -1,000 Descending Potomac TRACON
Tue 07:46:00 PM 39.5364 -76.7765 159° South  Level FlightAware Approximate
Tue 07:47:48 PM 39.4667 -76.6167 270° West 275 316 5,100  Level Potomac TRACON
Tue 07:49:00 PM 39.3503 -76.6374 142° Southeast  Level Estimated
Tue 07:50:48 PM 39.2833 -76.4833 270° West 263 303 4,000  Level Potomac TRACON
Tue 07:52:00 PM 39.2127 -76.6044 233° Southwest  Level Estimated
Tue 07:52:49 PM 39.1500 -76.4667 233° Southwest 225 259 3,000  Level Potomac TRACON
Tue 07:53:00 PM 39.1754 -76.6683 270° West  Level Estimated
Tue 07:53:49 PM 39.1000 -76.5167 218° Southwest 197 227 3,000  Level Potomac TRACON
Tue 07:54:49 PM 39.0667 -76.5500 218° Southwest 193 222 2,800 -450 Descending Potomac TRACON
Tue 07:55:49 PM 39.1000 -76.6000 311° West 178 205 2,100 -947 Descending Potomac TRACON
Tue 07:56:00 PM 39.1754 -76.6683 270° West  Level Estimated
Tue 07:56:43 PM 39.1333 -76.6333 322° Northwest 158 182 1,000  Level Potomac TRACON
Tue 07:58:00 PM 39.1818 -76.6538 169° South  Level FlightAware Approximate

Login

Don't have an account? Register now (free) for customized features, flight alerts, and more!